sensor_id;sensor_type;location;lat;lon;timestamp;temperature;humidity
25568;DHT22;13455;51.480;7.594;2024-01-16T10:49:49;2.20;99.90
25568;DHT22;13455;51.480;7.594;2024-01-16T10:52:14;2.10;99.90
25568;DHT22;13455;51.480;7.594;2024-01-16T10:54:42;2.10;99.90
25568;DHT22;13455;51.480;7.594;2024-01-16T10:57:11;2.10;99.90
25568;DHT22;13455;51.480;7.594;2024-01-16T11:31:51;3.10;99.90
25568;DHT22;13455;51.480;7.594;2024-01-16T11:37:07;3.20;99.90
25568;DHT22;13455;51.480;7.594;2024-01-16T11:39:33;3.50;99.90
25568;DHT22;13455;51.480;7.594;2024-01-16T11:41:59;3.80;99.90
25568;DHT22;13455;51.480;7.594;2024-01-16T11:44:38;3.90;99.90
25568;DHT22;13455;51.480;7.594;2024-01-16T11:47:04;4.30;99.90
25568;DHT22;13455;51.480;7.594;2024-01-16T11:51:57;4.50;99.90
25568;DHT22;13455;51.480;7.594;2024-01-16T11:54:23;4.70;99.90
25568;DHT22;13455;51.480;7.594;2024-01-16T12:02:21;5.10;99.90
25568;DHT22;13455;51.480;7.594;2024-01-16T12:04:52;5.40;99.90
25568;DHT22;13455;51.480;7.594;2024-01-16T12:07:22;5.10;99.90
25568;DHT22;13455;51.480;7.594;2024-01-16T12:12:15;4.80;99.90
25568;DHT22;13455;51.480;7.594;2024-01-16T12:17:13;4.60;99.90
25568;DHT22;13455;51.480;7.594;2024-01-16T12:19:39;4.50;99.90
25568;DHT22;13455;51.480;7.594;2024-01-16T12:22:10;4.30;99.90
25568;DHT22;13455;51.480;7.594;2024-01-16T12:24:37;4.50;99.90
25568;DHT22;13455;51.480;7.594;2024-01-16T12:27:03;4.80;99.90
25568;DHT22;13455;51.480;7.594;2024-01-16T12:29:29;5.30;99.90
25568;DHT22;13455;51.480;7.594;2024-01-16T12:32:06;5.80;99.90
25568;DHT22;13455;51.480;7.594;2024-01-16T12:34:32;6.40;99.90
25568;DHT22;13455;51.480;7.594;2024-01-16T12:37:07;6.70;99.90
25568;DHT22;13455;51.480;7.594;2024-01-16T12:39:34;6.90;99.90
25568;DHT22;13455;51.480;7.594;2024-01-16T12:42:01;7.50;99.90
25568;DHT22;13455;51.480;7.594;2024-01-16T12:44:27;7.80;99.90
25568;DHT22;13455;51.480;7.594;2024-01-16T12:46:57;8.10;99.90
25568;DHT22;13455;51.480;7.594;2024-01-16T12:49:23;8.50;99.90
25568;DHT22;13455;51.480;7.594;2024-01-16T12:51:49;8.90;99.90
25568;DHT22;13455;51.480;7.594;2024-01-16T12:54:17;9.00;99.90
25568;DHT22;13455;51.480;7.594;2024-01-16T12:59:13;8.80;99.90
25568;DHT22;13455;51.480;7.594;2024-01-16T13:01:43;8.60;99.90
25568;DHT22;13455;51.480;7.594;2024-01-16T13:04:10;9.00;99.90
25568;DHT22;13455;51.480;7.594;2024-01-16T13:06:36;8.20;99.90
25568;DHT22;13455;51.480;7.594;2024-01-16T13:11:52;7.60;99.90
25568;DHT22;13455;51.480;7.594;2024-01-16T13:14:21;7.50;99.90
25568;DHT22;13455;51.480;7.594;2024-01-16T13:16:47;7.10;99.90
25568;DHT22;13455;51.480;7.594;2024-01-16T13:19:17;6.90;99.90
25568;DHT22;13455;51.480;7.594;2024-01-16T13:21:42;6.20;99.90
25568;DHT22;13455;51.480;7.594;2024-01-16T13:24:08;6.00;99.90
25568;DHT22;13455;51.480;7.594;2024-01-16T13:26:33;5.80;99.90
25568;DHT22;13455;51.480;7.594;2024-01-16T13:29:00;5.60;99.90
25568;DHT22;13455;51.480;7.594;2024-01-16T13:36:24;5.00;99.90
25568;DHT22;13455;51.480;7.594;2024-01-16T13:38:50;5.10;99.90
25568;DHT22;13455;51.480;7.594;2024-01-16T13:41:16;5.00;99.90
25568;DHT22;13455;51.480;7.594;2024-01-16T13:46:07;4.90;99.90
25568;DHT22;13455;51.480;7.594;2024-01-16T13:48:35;4.90;99.90
25568;DHT22;13455;51.480;7.594;2024-01-16T13:51:01;4.80;99.90
25568;DHT22;13455;51.480;7.594;2024-01-16T13:53:29;4.70;99.90
25568;DHT22;13455;51.480;7.594;2024-01-16T13:55:55;4.60;99.90
25568;DHT22;13455;51.480;7.594;2024-01-16T13:58:20;4.90;99.90
25568;DHT22;13455;51.480;7.594;2024-01-16T14:00:46;4.40;99.90
25568;DHT22;13455;51.480;7.594;2024-01-16T14:08:07;4.10;99.90
25568;DHT22;13455;51.480;7.594;2024-01-16T14:10:33;4.00;99.90
25568;DHT22;13455;51.480;7.594;2024-01-16T14:12:59;3.80;99.90
25568;DHT22;13455;51.480;7.594;2024-01-16T14:15:24;3.70;99.90
25568;DHT22;13455;51.480;7.594;2024-01-16T14:20:22;3.80;99.90
25568;DHT22;13455;51.480;7.594;2024-01-16T14:45:17;3.30;99.90
25568;DHT22;13455;51.480;7.594;2024-01-16T14:47:43;3.10;99.90
25568;DHT22;13455;51.480;7.594;2024-01-16T15:00:04;2.90;99.90
25568;DHT22;13455;51.480;7.594;2024-01-16T15:02:39;2.80;99.90
25568;DHT22;13455;51.480;7.594;2024-01-16T15:05:04;2.80;99.90
25568;DHT22;13455;51.480;7.594;2024-01-16T15:07:31;2.70;99.90
25568;DHT22;13455;51.480;7.594;2024-01-16T15:09:57;2.60;99.90
25568;DHT22;13455;51.480;7.594;2024-01-16T15:12:22;2.60;99.90
25568;DHT22;13455;51.480;7.594;2024-01-16T15:14:48;2.60;99.90
25568;DHT22;13455;51.480;7.594;2024-01-16T15:24:31;2.50;99.90
25568;DHT22;13455;51.480;7.594;2024-01-16T15:26:57;2.40;99.90
25568;DHT22;13455;51.480;7.594;2024-01-16T15:29:23;2.30;99.90
25568;DHT22;13455;51.480;7.594;2024-01-16T15:31:49;2.30;99.90
25568;DHT22;13455;51.480;7.594;2024-01-16T15:34:17;2.20;99.90
25568;DHT22;13455;51.480;7.594;2024-01-16T15:36:43;2.20;99.90
25568;DHT22;13455;51.480;7.594;2024-01-16T15:39:09;2.10;99.90
25568;DHT22;13455;51.480;7.594;2024-01-16T15:41:35;2.00;99.90
25568;DHT22;13455;51.480;7.594;2024-01-16T15:44:01;1.90;99.90
25568;DHT22;13455;51.480;7.594;2024-01-16T15:46:27;1.80;99.90
25568;DHT22;13455;51.480;7.594;2024-01-16T16:15:43;1.40;99.90
25568;DHT22;13455;51.480;7.594;2024-01-16T16:18:09;1.40;99.90
25568;DHT22;13455;51.480;7.594;2024-01-16T16:25:27;1.20;99.90
25568;DHT22;13455;51.480;7.594;2024-01-16T16:27:53;1.10;99.90
25568;DHT22;13455;51.480;7.594;2024-01-16T16:30:18;1.10;99.90
25568;DHT22;13455;51.480;7.594;2024-01-16T16:42:31;0.70;99.90
25568;DHT22;13455;51.480;7.594;2024-01-16T16:44:57;0.80;99.90
25568;DHT22;13455;51.480;7.594;2024-01-16T16:47:24;0.80;99.90
25568;DHT22;13455;51.480;7.594;2024-01-16T16:49:50;0.80;99.90
25568;DHT22;13455;51.480;7.594;2024-01-16T17:02:04;0.60;99.90
25568;DHT22;13455;51.480;7.594;2024-01-16T17:06:56;0.50;99.90
25568;DHT22;13455;51.480;7.594;2024-01-16T17:09:23;0.60;99.90
25568;DHT22;13455;51.480;7.594;2024-01-16T17:11:48;0.50;99.90
25568;DHT22;13455;51.480;7.594;2024-01-16T17:14:14;0.40;99.90
25568;DHT22;13455;51.480;7.594;2024-01-16T17:16:40;0.40;99.90
25568;DHT22;13455;51.480;7.594;2024-01-16T17:19:07;0.30;99.90
25568;DHT22;13455;51.480;7.594;2024-01-16T17:21:33;0.40;99.90
25568;DHT22;13455;51.480;7.594;2024-01-16T17:36:09;0.30;99.90
25568;DHT22;13455;51.480;7.594;2024-01-16T17:38:38;0.30;99.90
25568;DHT22;13455;51.480;7.594;2024-01-16T17:41:05;0.20;99.90
25568;DHT22;13455;51.480;7.594;2024-01-16T17:43:31;0.20;99.90
25568;DHT22;13455;51.480;7.594;2024-01-16T17:45:57;0.20;99.90
25568;DHT22;13455;51.480;7.594;2024-01-16T17:48:23;0.10;99.90
25568;DHT22;13455;51.480;7.594;2024-01-16T17:50:49;0.00;99.90
25568;DHT22;13455;51.480;7.594;2024-01-16T17:53:15;0.20;99.90
25568;DHT22;13455;51.480;7.594;2024-01-16T17:55:41;0.00;99.90
25568;DHT22;13455;51.480;7.594;2024-01-16T17:58:08;0.00;99.90
25568;DHT22;13455;51.480;7.594;2024-01-16T18:00:34;-0.10;99.90
25568;DHT22;13455;51.480;7.594;2024-01-16T18:03:00;-0.10;99.90
25568;DHT22;13455;51.480;7.594;2024-01-16T18:05:26;-0.10;99.90
25568;DHT22;13455;51.480;7.594;2024-01-16T18:07:58;-0.10;99.90
25568;DHT22;13455;51.480;7.594;2024-01-16T18:10:24;-0.20;99.90
25568;DHT22;13455;51.480;7.594;2024-01-16T18:12:50;-0.20;99.90
25568;DHT22;13455;51.480;7.594;2024-01-16T18:15:16;-0.20;99.90
25568;DHT22;13455;51.480;7.594;2024-01-16T18:20:12;-0.30;99.90
25568;DHT22;13455;51.480;7.594;2024-01-16T18:22:45;-0.30;99.90
25568;DHT22;13455;51.480;7.594;2024-01-16T21:09:26;-1.60;99.90
25568;DHT22;13455;51.480;7.594;2024-01-16T21:11:52;-1.70;99.90
25568;DHT22;13455;51.480;7.594;2024-01-16T21:14:17;-1.70;99.90
25568;DHT22;13455;51.480;7.594;2024-01-16T21:16:43;-1.70;99.90
25568;DHT22;13455;51.480;7.594;2024-01-16T21:19:09;-1.30;99.90
25568;DHT22;13455;51.480;7.594;2024-01-16T21:21:35;-0.80;99.90
25568;DHT22;13455;51.480;7.594;2024-01-16T21:24:00;-1.80;99.90
25568;DHT22;13455;51.480;7.594;2024-01-16T21:26:27;-1.80;99.90
25568;DHT22;13455;51.480;7.594;2024-01-16T21:28:53;-1.80;99.90
25568;DHT22;13455;51.480;7.594;2024-01-16T21:31:20;-1.80;99.90
25568;DHT22;13455;51.480;7.594;2024-01-16T21:33:45;-1.80;99.90
25568;DHT22;13455;51.480;7.594;2024-01-16T21:36:11;-1.90;99.90
25568;DHT22;13455;51.480;7.594;2024-01-16T21:38:39;-1.90;99.90
25568;DHT22;13455;51.480;7.594;2024-01-16T21:41:05;-1.90;99.90
25568;DHT22;13455;51.480;7.594;2024-01-16T21:43:32;-1.90;99.90
25568;DHT22;13455;51.480;7.594;2024-01-16T21:45:58;-2.00;99.90
25568;DHT22;13455;51.480;7.594;2024-01-16T21:48:24;-2.00;99.90
